sensor_id;sensor_type;location;lat;lon;timestamp;P1;durP1;ratioP1;P2;durP2;ratioP2
80898;SDS011;70349;49.210;-122.932;2023-08-06T00:01:45;3.13;;;2.40;;
80898;SDS011;70349;49.210;-122.932;2023-08-06T00:04:14;4.03;;;2.88;;
80898;SDS011;70349;49.210;-122.932;2023-08-06T00:06:40;3.42;;;2.33;;
80898;SDS011;70349;49.210;-122.932;2023-08-06T00:09:09;4.22;;;2.70;;
80898;SDS011;70349;49.210;-122.932;2023-08-06T00:11:35;5.15;;;4.07;;
80898;SDS011;70349;49.210;-122.932;2023-08-06T00:14:02;3.20;;;2.35;;
80898;SDS011;70349;49.210;-122.932;2023-08-06T00:16:28;4.07;;;2.80;;
80898;SDS011;70349;49.210;-122.932;2023-08-06T00:18:54;3.83;;;2.75;;
80898;SDS011;70349;49.210;-122.932;2023-08-06T00:21:20;3.85;;;2.95;;
80898;SDS011;70349;49.210;-122.932;2023-08-06T00:23:50;3.55;;;2.97;;
80898;SDS011;70349;49.210;-122.932;2023-08-06T00:26:17;6.53;;;5.82;;
80898;SDS011;70349;49.210;-122.932;2023-08-06T00:28:46;4.18;;;2.88;;
80898;SDS011;70349;49.210;-122.932;2023-08-06T00:31:15;3.50;;;2.88;;
80898;SDS011;70349;49.210;-122.932;2023-08-06T00:33:41;3.72;;;3.33;;
80898;SDS011;70349;49.210;-122.932;2023-08-06T00:36:10;3.72;;;2.47;;
80898;SDS011;70349;49.210;-122.932;2023-08-06T00:38:37;3.67;;;2.85;;
80898;SDS011;70349;49.210;-122.932;2023-08-06T00:41:05;3.97;;;2.80;;
80898;SDS011;70349;49.210;-122.932;2023-08-06T00:43:31;4.80;;;3.63;;
80898;SDS011;70349;49.210;-122.932;2023-08-06T00:46:00;4.40;;;2.90;;
80898;SDS011;70349;49.210;-122.932;2023-08-06T00:48:27;3.50;;;3.00;;
80898;SDS011;70349;49.210;-122.932;2023-08-06T00:50:53;5.03;;;4.40;;
80898;SDS011;70349;49.210;-122.932;2023-08-06T00:53:20;5.95;;;3.58;;
80898;SDS011;70349;49.210;-122.932;2023-08-06T00:55:46;5.43;;;4.95;;
80898;SDS011;70349;49.210;-122.932;2023-08-06T00:58:12;4.45;;;3.90;;
80898;SDS011;70349;49.210;-122.932;2023-08-06T01:00:42;4.53;;;4.13;;
80898;SDS011;70349;49.210;-122.932;2023-08-06T01:03:09;4.75;;;4.35;;
80898;SDS011;70349;49.210;-122.932;2023-08-06T01:05:35;3.80;;;3.28;;
80898;SDS011;70349;49.210;-122.932;2023-08-06T01:08:06;4.25;;;3.35;;
80898;SDS011;70349;49.210;-122.932;2023-08-06T01:11:05;5.18;;;4.70;;
80898;SDS011;70349;49.210;-122.932;2023-08-06T01:16:17;5.68;;;3.90;;
80898;SDS011;70349;49.210;-122.932;2023-08-06T01:18:44;3.92;;;3.05;;
80898;SDS011;70349;49.210;-122.932;2023-08-06T01:21:16;3.50;;;2.97;;
80898;SDS011;70349;49.210;-122.932;2023-08-06T01:23:43;3.95;;;3.38;;
80898;SDS011;70349;49.210;-122.932;2023-08-06T01:31:35;4.80;;;3.13;;
80898;SDS011;70349;49.210;-122.932;2023-08-06T01:34:03;4.28;;;3.58;;
80898;SDS011;70349;49.210;-122.932;2023-08-06T01:36:31;3.92;;;3.45;;
80898;SDS011;70349;49.210;-122.932;2023-08-06T01:38:58;3.58;;;3.28;;
80898;SDS011;70349;49.210;-122.932;2023-08-06T01:41:24;3.80;;;2.95;;
80898;SDS011;70349;49.210;-122.932;2023-08-06T01:43:51;3.42;;;2.50;;
80898;SDS011;70349;49.210;-122.932;2023-08-06T01:46:17;3.50;;;2.75;;
80898;SDS011;70349;49.210;-122.932;2023-08-06T01:48:46;4.88;;;3.25;;
80898;SDS011;70349;49.210;-122.932;2023-08-06T01:53:40;3.28;;;2.25;;
80898;SDS011;70349;49.210;-122.932;2023-08-06T01:56:07;5.18;;;3.67;;
80898;SDS011;70349;49.210;-122.932;2023-08-06T01:58:33;3.03;;;2.40;;
80898;SDS011;70349;49.210;-122.932;2023-08-06T02:01:00;3.78;;;2.55;;
80898;SDS011;70349;49.210;-122.932;2023-08-06T02:03:27;2.90;;;2.22;;
80898;SDS011;70349;49.210;-122.932;2023-08-06T02:05:53;3.42;;;2.78;;
80898;SDS011;70349;49.210;-122.932;2023-08-06T02:08:19;4.07;;;3.47;;
80898;SDS011;70349;49.210;-122.932;2023-08-06T02:10:46;4.45;;;2.80;;
80898;SDS011;70349;49.210;-122.932;2023-08-06T02:13:15;3.90;;;3.05;;
80898;SDS011;70349;49.210;-122.932;2023-08-06T02:15:42;4.75;;;4.00;;
80898;SDS011;70349;49.210;-122.932;2023-08-06T02:18:09;6.15;;;3.35;;
80898;SDS011;70349;49.210;-122.932;2023-08-06T02:20:35;3.47;;;3.17;;
80898;SDS011;70349;49.210;-122.932;2023-08-06T02:23:02;4.13;;;3.00;;
80898;SDS011;70349;49.210;-122.932;2023-08-06T02:25:31;2.90;;;2.60;;
80898;SDS011;70349;49.210;-122.932;2023-08-06T02:27:57;5.40;;;3.03;;
80898;SDS011;70349;49.210;-122.932;2023-08-06T02:30:24;4.50;;;3.63;;
80898;SDS011;70349;49.210;-122.932;2023-08-06T02:32:50;4.43;;;3.70;;
80898;SDS011;70349;49.210;-122.932;2023-08-06T02:35:16;4.93;;;3.08;;
80898;SDS011;70349;49.210;-122.932;2023-08-06T02:37:42;6.47;;;3.95;;
80898;SDS011;70349;49.210;-122.932;2023-08-06T02:40:09;4.68;;;3.85;;
80898;SDS011;70349;49.210;-122.932;2023-08-06T02:42:35;4.25;;;2.92;;
80898;SDS011;70349;49.210;-122.932;2023-08-06T02:45:02;4.22;;;3.35;;
80898;SDS011;70349;49.210;-122.932;2023-08-06T02:47:28;3.40;;;3.10;;
80898;SDS011;70349;49.210;-122.932;2023-08-06T02:49:54;4.88;;;3.17;;
80898;SDS011;70349;49.210;-122.932;2023-08-06T02:52:21;3.40;;;2.92;;
80898;SDS011;70349;49.210;-122.932;2023-08-06T02:54:50;3.72;;;2.45;;
80898;SDS011;70349;49.210;-122.932;2023-08-06T02:57:16;5.68;;;3.13;;
80898;SDS011;70349;49.210;-122.932;2023-08-06T02:59:42;3.85;;;3.33;;
80898;SDS011;70349;49.210;-122.932;2023-08-06T03:02:09;6.22;;;4.80;;
80898;SDS011;70349;49.210;-122.932;2023-08-06T03:04:35;4.90;;;4.50;;
80898;SDS011;70349;49.210;-122.932;2023-08-06T03:07:01;4.28;;;3.13;;
80898;SDS011;70349;49.210;-122.932;2023-08-06T03:09:27;4.13;;;3.30;;
80898;SDS011;70349;49.210;-122.932;2023-08-06T03:11:56;4.28;;;3.88;;
80898;SDS011;70349;49.210;-122.932;2023-08-06T03:14:25;5.70;;;5.07;;
80898;SDS011;70349;49.210;-122.932;2023-08-06T03:16:54;3.20;;;2.90;;
80898;SDS011;70349;49.210;-122.932;2023-08-06T03:19:22;6.45;;;3.22;;
80898;SDS011;70349;49.210;-122.932;2023-08-06T03:21:49;3.78;;;3.42;;
80898;SDS011;70349;49.210;-122.932;2023-08-06T03:24:15;4.15;;;3.63;;
80898;SDS011;70349;49.210;-122.932;2023-08-06T03:26:44;4.40;;;3.30;;
80898;SDS011;70349;49.210;-122.932;2023-08-06T03:29:10;3.80;;;3.40;;
80898;SDS011;70349;49.210;-122.932;2023-08-06T03:31:36;3.65;;;3.13;;
80898;SDS011;70349;49.210;-122.932;2023-08-06T03:34:03;4.85;;;4.43;;
80898;SDS011;70349;49.210;-122.932;2023-08-06T03:36:29;4.80;;;3.25;;
80898;SDS011;70349;49.210;-122.932;2023-08-06T03:38:57;5.50;;;3.78;;
80898;SDS011;70349;49.210;-122.932;2023-08-06T03:41:27;4.80;;;3.47;;
80898;SDS011;70349;49.210;-122.932;2023-08-06T03:43:56;5.47;;;5.05;;
80898;SDS011;70349;49.210;-122.932;2023-08-06T03:46:23;4.68;;;4.18;;
80898;SDS011;70349;49.210;-122.932;2023-08-06T03:48:50;4.70;;;4.28;;
80898;SDS011;70349;49.210;-122.932;2023-08-06T03:51:40;6.47;;;3.85;;
80898;SDS011;70349;49.210;-122.932;2023-08-06T03:54:06;3.78;;;3.25;;
80898;SDS011;70349;49.210;-122.932;2023-08-06T03:56:32;4.35;;;2.90;;
80898;SDS011;70349;49.210;-122.932;2023-08-06T03:58:58;4.80;;;3.78;;
80898;SDS011;70349;49.210;-122.932;2023-08-06T04:01:27;4.95;;;4.55;;
80898;SDS011;70349;49.210;-122.932;2023-08-06T04:03:57;4.68;;;4.03;;
80898;SDS011;70349;49.210;-122.932;2023-08-06T04:06:23;5.30;;;3.65;;
80898;SDS011;70349;49.210;-122.932;2023-08-06T04:08:52;6.30;;;5.80;;
80898;SDS011;70349;49.210;-122.932;2023-08-06T04:11:18;4.53;;;2.75;;
80898;SDS011;70349;49.210;-122.932;2023-08-06T04:13:44;5.22;;;4.72;;
80898;SDS011;70349;49.210;-122.932;2023-08-06T04:16:11;4.43;;;4.03;;
80898;SDS011;70349;49.210;-122.932;2023-08-06T04:18:38;6.05;;;5.15;;
80898;SDS011;70349;49.210;-122.932;2023-08-06T04:21:04;8.80;;;5.10;;
80898;SDS011;70349;49.210;-122.932;2023-08-06T04:23:31;5.00;;;3.90;;
80898;SDS011;70349;49.210;-122.932;2023-08-06T04:25:59;4.88;;;2.50;;
80898;SDS011;70349;49.210;-122.932;2023-08-06T04:28:26;5.28;;;4.30;;
80898;SDS011;70349;49.210;-122.932;2023-08-06T04:30:54;4.80;;;4.07;;
80898;SDS011;70349;49.210;-122.932;2023-08-06T04:33:20;4.72;;;4.22;;
80898;SDS011;70349;49.210;-122.932;2023-08-06T04:35:49;5.43;;;4.93;;
80898;SDS011;70349;49.210;-122.932;2023-08-06T04:38:20;3.97;;;3.55;;
80898;SDS011;70349;49.210;-122.932;2023-08-06T04:40:48;7.07;;;3.88;;
80898;SDS011;70349;49.210;-122.932;2023-08-06T04:43:18;5.88;;;5.38;;
80898;SDS011;70349;49.210;-122.932;2023-08-06T04:45:51;7.05;;;4.50;;
80898;SDS011;70349;49.210;-122.932;2023-08-06T04:48:18;4.93;;;3.95;;
80898;SDS011;70349;49.210;-122.932;2023-08-06T04:50:45;7.13;;;4.90;;
80898;SDS011;70349;49.210;-122.932;2023-08-06T04:53:13;5.40;;;4.43;;
80898;SDS011;70349;49.210;-122.932;2023-08-06T04:55:39;5.43;;;4.93;;
80898;SDS011;70349;49.210;-122.932;2023-08-06T04:58:06;9.30;;;8.60;;
80898;SDS011;70349;49.210;-122.932;2023-08-06T05:00:34;5.72;;;5.22;;
80898;SDS011;70349;49.210;-122.932;2023-08-06T05:03:05;4.97;;;4.55;;
80898;SDS011;70349;49.210;-122.932;2023-08-06T05:05:43;5.25;;;4.75;;
80898;SDS011;70349;49.210;-122.932;2023-08-06T05:08:23;6.43;;;5.82;;
80898;SDS011;70349;49.210;-122.932;2023-08-06T05:11:12;7.35;;;6.70;;
80898;SDS011;70349;49.210;-122.932;2023-08-06T05:17:08;6.88;;;6.38;;
80898;SDS011;70349;49.210;-122.932;2023-08-06T05:19:49;5.22;;;4.80;;
80898;SDS011;70349;49.210;-122.932;2023-08-06T05:25:23;6.10;;;5.43;;
80898;SDS011;70349;49.210;-122.932;2023-08-06T05:27:50;5.97;;;5.45;;
80898;SDS011;70349;49.210;-122.932;2023-08-06T05:30:16;5.53;;;5.07;;
80898;SDS011;70349;49.210;-122.932;2023-08-06T05:33:01;5.28;;;4.80;;
80898;SDS011;70349;49.210;-122.932;2023-08-06T05:35:41;5.60;;;4.13;;
80898;SDS011;70349;49.210;-122.932;2023-08-06T05:38:07;5.22;;;3.85;;
80898;SDS011;70349;49.210;-122.932;2023-08-06T05:40:34;5.38;;;4.88;;
80898;SDS011;70349;49.210;-122.932;2023-08-06T05:43:00;5.22;;;4.57;;
80898;SDS011;70349;49.210;-122.932;2023-08-06T05:45:26;4.63;;;4.10;;
80898;SDS011;70349;49.210;-122.932;2023-08-06T05:47:53;4.90;;;4.18;;
80898;SDS011;70349;49.210;-122.932;2023-08-06T05:50:24;4.68;;;4.05;;
80898;SDS011;70349;49.210;-122.932;2023-08-06T05:52:53;4.60;;;3.90;;
80898;SDS011;70349;49.210;-122.932;2023-08-06T05:55:22;5.60;;;5.07;;
80898;SDS011;70349;49.210;-122.932;2023-08-06T05:57:48;4.32;;;3.92;;
80898;SDS011;70349;49.210;-122.932;2023-08-06T06:00:17;4.93;;;3.75;;
80898;SDS011;70349;49.210;-122.932;2023-08-06T06:02:44;5.18;;;4.72;;
80898;SDS011;70349;49.210;-122.932;2023-08-06T06:05:17;10.63;;;5.68;;
80898;SDS011;70349;49.210;-122.932;2023-08-06T06:07:45;4.60;;;4.20;;
80898;SDS011;70349;49.210;-122.932;2023-08-06T06:10:33;5.65;;;5.20;;
80898;SDS011;70349;49.210;-122.932;2023-08-06T06:12:59;4.60;;;4.20;;
80898;SDS011;70349;49.210;-122.932;2023-08-06T06:15:30;4.82;;;4.32;;
80898;SDS011;70349;49.210;-122.932;2023-08-06T06:17:57;5.75;;;5.18;;
80898;SDS011;70349;49.210;-122.932;2023-08-06T06:22:51;4.40;;;3.85;;
80898;SDS011;70349;49.210;-122.932;2023-08-06T06:25:18;11.48;;;10.68;;
80898;SDS011;70349;49.210;-122.932;2023-08-06T06:27:44;5.88;;;5.38;;
80898;SDS011;70349;49.210;-122.932;2023-08-06T06:30:13;5.65;;;4.50;;
80898;SDS011;70349;49.210;-122.932;2023-08-06T06:32:39;5.45;;;5.00;;
80898;SDS011;70349;49.210;-122.932;2023-08-06T06:37:34;8.40;;;7.15;;
80898;SDS011;70349;49.210;-122.932;2023-08-06T06:40:00;6.32;;;5.80;;
80898;SDS011;70349;49.210;-122.932;2023-08-06T06:42:27;5.90;;;4.78;;
80898;SDS011;70349;49.210;-122.932;2023-08-06T06:44:53;5.68;;;4.88;;
80898;SDS011;70349;49.210;-122.932;2023-08-06T06:47:19;5.13;;;4.63;;
80898;SDS011;70349;49.210;-122.932;2023-08-06T06:49:48;4.78;;;4.38;;
80898;SDS011;70349;49.210;-122.932;2023-08-06T06:52:14;7.43;;;5.55;;
80898;SDS011;70349;49.210;-122.932;2023-08-06T06:54:41;5.95;;;5.45;;
80898;SDS011;70349;49.210;-122.932;2023-08-06T06:57:10;5.82;;;4.80;;
80898;SDS011;70349;49.210;-122.932;2023-08-06T06:59:36;5.95;;;5.20;;
80898;SDS011;70349;49.210;-122.932;2023-08-06T07:02:03;6.65;;;6.15;;
80898;SDS011;70349;49.210;-122.932;2023-08-06T07:04:32;5.10;;;4.60;;
80898;SDS011;70349;49.210;-122.932;2023-08-06T07:06:58;4.50;;;4.10;;
80898;SDS011;70349;49.210;-122.932;2023-08-06T07:09:25;5.80;;;3.95;;
80898;SDS011;70349;49.210;-122.932;2023-08-06T07:11:52;5.63;;;5.13;;
80898;SDS011;70349;49.210;-122.932;2023-08-06T07:14:21;6.82;;;6.13;;
80898;SDS011;70349;49.210;-122.932;2023-08-06T07:16:51;5.13;;;4.72;;
80898;SDS011;70349;49.210;-122.932;2023-08-06T07:19:17;7.60;;;7.10;;
80898;SDS011;70349;49.210;-122.932;2023-08-06T07:21:43;4.57;;;4.10;;
80898;SDS011;70349;49.210;-122.932;2023-08-06T07:24:10;5.78;;;5.38;;
80898;SDS011;70349;49.210;-122.932;2023-08-06T07:26:37;4.65;;;4.25;;
80898;SDS011;70349;49.210;-122.932;2023-08-06T07:29:03;6.63;;;4.95;;
80898;SDS011;70349;49.210;-122.932;2023-08-06T07:31:29;6.50;;;5.95;;
80898;SDS011;70349;49.210;-122.932;2023-08-06T07:33:56;6.00;;;4.85;;
80898;SDS011;70349;49.210;-122.932;2023-08-06T07:36:22;4.60;;;3.45;;
80898;SDS011;70349;49.210;-122.932;2023-08-06T07:38:48;5.65;;;4.25;;
80898;SDS011;70349;49.210;-122.932;2023-08-06T07:41:23;5.20;;;4.70;;
80898;SDS011;70349;49.210;-122.932;2023-08-06T07:46:18;6.50;;;6.00;;
80898;SDS011;70349;49.210;-122.932;2023-08-06T07:48:44;6.20;;;5.70;;
80898;SDS011;70349;49.210;-122.932;2023-08-06T07:51:11;5.15;;;4.55;;
80898;SDS011;70349;49.210;-122.932;2023-08-06T07:53:37;5.93;;;3.38;;
80898;SDS011;70349;49.210;-122.932;2023-08-06T07:56:03;4.22;;;3.70;;
80898;SDS011;70349;49.210;-122.932;2023-08-06T07:58:30;4.85;;;4.28;;
80898;SDS011;70349;49.210;-122.932;2023-08-06T08:00:57;5.28;;;3.08;;
80898;SDS011;70349;49.210;-122.932;2023-08-06T08:03:23;6.55;;;5.68;;
80898;SDS011;70349;49.210;-122.932;2023-08-06T08:05:49;6.60;;;6.10;;
80898;SDS011;70349;49.210;-122.932;2023-08-06T08:08:17;7.75;;;6.22;;
80898;SDS011;70349;49.210;-122.932;2023-08-06T08:10:43;5.65;;;4.82;;
80898;SDS011;70349;49.210;-122.932;2023-08-06T08:13:10;8.90;;;7.53;;
80898;SDS011;70349;49.210;-122.932;2023-08-06T08:15:36;5.65;;;5.15;;
80898;SDS011;70349;49.210;-122.932;2023-08-06T08:18:03;5.72;;;5.03;;
80898;SDS011;70349;49.210;-122.932;2023-08-06T08:20:29;5.15;;;4.50;;
80898;SDS011;70349;49.210;-122.932;2023-08-06T08:23:00;8.85;;;7.90;;
80898;SDS011;70349;49.210;-122.932;2023-08-06T08:25:27;5.78;;;5.28;;
80898;SDS011;70349;49.210;-122.932;2023-08-06T08:27:53;6.78;;;6.18;;
80898;SDS011;70349;49.210;-122.932;2023-08-06T08:30:20;6.55;;;5.93;;
80898;SDS011;70349;49.210;-122.932;2023-08-06T08:32:47;8.50;;;5.13;;
80898;SDS011;70349;49.210;-122.932;2023-08-06T08:35:14;6.53;;;5.15;;
80898;SDS011;70349;49.210;-122.932;2023-08-06T08:37:43;7.35;;;4.85;;
80898;SDS011;70349;49.210;-122.932;2023-08-06T08:40:11;7.13;;;5.10;;
80898;SDS011;70349;49.210;-122.932;2023-08-06T08:42:40;6.10;;;5.50;;
80898;SDS011;70349;49.210;-122.932;2023-08-06T08:45:15;3.80;;;2.50;;
80898;SDS011;70349;49.210;-122.932;2023-08-06T08:47:41;5.85;;;5.35;;
80898;SDS011;70349;49.210;-122.932;2023-08-06T08:50:11;6.10;;;5.53;;
80898;SDS011;70349;49.210;-122.932;2023-08-06T08:52:39;7.72;;;5.72;;
80898;SDS011;70349;49.210;-122.932;2023-08-06T08:55:09;6.93;;;6.32;;
80898;SDS011;70349;49.210;-122.932;2023-08-06T08:57:36;8.18;;;7.38;;
80898;SDS011;70349;49.210;-122.932;2023-08-06T09:00:02;7.47;;;6.78;;
80898;SDS011;70349;49.210;-122.932;2023-08-06T09:02:32;6.72;;;6.15;;
80898;SDS011;70349;49.210;-122.932;2023-08-06T09:05:04;7.05;;;6.38;;
80898;SDS011;70349;49.210;-122.932;2023-08-06T09:07:42;6.38;;;5.78;;
80898;SDS011;70349;49.210;-122.932;2023-08-06T09:10:16;5.57;;;5.07;;
80898;SDS011;70349;49.210;-122.932;2023-08-06T09:12:43;6.05;;;4.43;;
80898;SDS011;70349;49.210;-122.932;2023-08-06T09:15:10;5.05;;;4.55;;
80898;SDS011;70349;49.210;-122.932;2023-08-06T09:17:41;5.75;;;3.58;;
80898;SDS011;70349;49.210;-122.932;2023-08-06T09:20:13;6.25;;;4.88;;
80898;SDS011;70349;49.210;-122.932;2023-08-06T09:22:40;5.78;;;4.45;;
80898;SDS011;70349;49.210;-122.932;2023-08-06T09:25:07;5.80;;;4.95;;
80898;SDS011;70349;49.210;-122.932;2023-08-06T09:27:39;7.63;;;7.03;;
80898;SDS011;70349;49.210;-122.932;2023-08-06T09:30:08;7.38;;;6.07;;
80898;SDS011;70349;49.210;-122.932;2023-08-06T09:32:47;6.10;;;5.47;;
80898;SDS011;70349;49.210;-122.932;2023-08-06T09:35:17;5.55;;;4.03;;
80898;SDS011;70349;49.210;-122.932;2023-08-06T09:37:44;6.18;;;5.47;;
80898;SDS011;70349;49.210;-122.932;2023-08-06T09:40:30;5.82;;;5.15;;
80898;SDS011;70349;49.210;-122.932;2023-08-06T09:42:57;6.65;;;5.90;;
80898;SDS011;70349;49.210;-122.932;2023-08-06T09:45:33;5.63;;;4.88;;
80898;SDS011;70349;49.210;-122.932;2023-08-06T09:48:07;7.50;;;7.00;;
80898;SDS011;70349;49.210;-122.932;2023-08-06T09:50:37;7.55;;;6.72;;
80898;SDS011;70349;49.210;-122.932;2023-08-06T09:53:09;4.35;;;3.15;;
80898;SDS011;70349;49.210;-122.932;2023-08-06T09:55:38;4.30;;;2.90;;
80898;SDS011;70349;49.210;-122.932;2023-08-06T09:58:04;5.28;;;4.78;;
80898;SDS011;70349;49.210;-122.932;2023-08-06T10:00:32;5.18;;;4.63;;
80898;SDS011;70349;49.210;-122.932;2023-08-06T10:03:00;6.35;;;5.70;;
80898;SDS011;70349;49.210;-122.932;2023-08-06T10:05:26;7.63;;;6.90;;
80898;SDS011;70349;49.210;-122.932;2023-08-06T10:07:53;6.47;;;5.88;;
80898;SDS011;70349;49.210;-122.932;2023-08-06T10:10:21;6.90;;;6.00;;
80898;SDS011;70349;49.210;-122.932;2023-08-06T10:12:48;5.13;;;4.60;;
80898;SDS011;70349;49.210;-122.932;2023-08-06T10:15:16;5.28;;;4.85;;
80898;SDS011;70349;49.210;-122.932;2023-08-06T10:17:46;4.85;;;4.45;;
80898;SDS011;70349;49.210;-122.932;2023-08-06T10:20:18;5.05;;;4.65;;
80898;SDS011;70349;49.210;-122.932;2023-08-06T10:23:01;4.72;;;4.25;;
80898;SDS011;70349;49.210;-122.932;2023-08-06T10:25:30;5.70;;;5.20;;
80898;SDS011;70349;49.210;-122.932;2023-08-06T10:27:57;4.65;;;4.20;;
80898;SDS011;70349;49.210;-122.932;2023-08-06T10:33:00;5.82;;;5.43;;
80898;SDS011;70349;49.210;-122.932;2023-08-06T10:35:28;5.20;;;4.70;;
80898;SDS011;70349;49.210;-122.932;2023-08-06T10:38:13;9.60;;;5.40;;
80898;SDS011;70349;49.210;-122.932;2023-08-06T10:40:40;4.22;;;3.88;;
80898;SDS011;70349;49.210;-122.932;2023-08-06T10:43:34;4.53;;;4.07;;
80898;SDS011;70349;49.210;-122.932;2023-08-06T10:46:12;5.68;;;4.70;;
80898;SDS011;70349;49.210;-122.932;2023-08-06T10:48:52;5.72;;;5.22;;
80898;SDS011;70349;49.210;-122.932;2023-08-06T10:51:18;4.20;;;3.75;;
80898;SDS011;70349;49.210;-122.932;2023-08-06T10:53:45;5.97;;;5.55;;
80898;SDS011;70349;49.210;-122.932;2023-08-06T10:56:21;6.10;;;5.63;;
80898;SDS011;70349;49.210;-122.932;2023-08-06T10:58:48;5.22;;;4.45;;
80898;SDS011;70349;49.210;-122.932;2023-08-06T11:01:18;5.47;;;4.90;;
80898;SDS011;70349;49.210;-122.932;2023-08-06T11:03:45;4.78;;;4.38;;
80898;SDS011;70349;49.210;-122.932;2023-08-06T11:06:19;4.03;;;3.63;;
80898;SDS011;70349;49.210;-122.932;2023-08-06T11:08:54;7.45;;;6.85;;
80898;SDS011;70349;49.210;-122.932;2023-08-06T11:11:23;4.28;;;3.88;;
80898;SDS011;70349;49.210;-122.932;2023-08-06T11:13:52;4.95;;;3.85;;
80898;SDS011;70349;49.210;-122.932;2023-08-06T11:16:23;9.27;;;5.00;;
80898;SDS011;70349;49.210;-122.932;2023-08-06T11:18:50;7.13;;;6.70;;
80898;SDS011;70349;49.210;-122.932;2023-08-06T11:21:21;4.43;;;4.03;;
80898;SDS011;70349;49.210;-122.932;2023-08-06T11:23:52;4.57;;;4.03;;
80898;SDS011;70349;49.210;-122.932;2023-08-06T11:26:22;5.28;;;4.88;;
80898;SDS011;70349;49.210;-122.932;2023-08-06T11:28:53;4.15;;;3.75;;
80898;SDS011;70349;49.210;-122.932;2023-08-06T11:31:22;4.65;;;4.25;;
80898;SDS011;70349;49.210;-122.932;2023-08-06T11:33:54;4.18;;;2.97;;
80898;SDS011;70349;49.210;-122.932;2023-08-06T11:36:33;4.95;;;4.40;;
80898;SDS011;70349;49.210;-122.932;2023-08-06T11:39:00;4.88;;;4.47;;
80898;SDS011;70349;49.210;-122.932;2023-08-06T11:41:33;4.75;;;4.35;;
80898;SDS011;70349;49.210;-122.932;2023-08-06T11:43:59;4.85;;;4.30;;
80898;SDS011;70349;49.210;-122.932;2023-08-06T11:46:26;5.35;;;4.85;;
80898;SDS011;70349;49.210;-122.932;2023-08-06T11:48:52;3.95;;;3.55;;
80898;SDS011;70349;49.210;-122.932;2023-08-06T11:51:23;4.32;;;3.55;;
80898;SDS011;70349;49.210;-122.932;2023-08-06T11:54:00;5.70;;;5.30;;
80898;SDS011;70349;49.210;-122.932;2023-08-06T11:56:27;4.88;;;4.47;;
80898;SDS011;70349;49.210;-122.932;2023-08-06T11:58:54;5.00;;;4.50;;
80898;SDS011;70349;49.210;-122.932;2023-08-06T12:01:21;4.85;;;4.45;;
80898;SDS011;70349;49.210;-122.932;2023-08-06T12:03:49;3.80;;;2.80;;
80898;SDS011;70349;49.210;-122.932;2023-08-06T12:06:16;5.78;;;5.28;;
80898;SDS011;70349;49.210;-122.932;2023-08-06T12:08:44;5.68;;;4.25;;
80898;SDS011;70349;49.210;-122.932;2023-08-06T12:11:11;8.02;;;7.43;;
80898;SDS011;70349;49.210;-122.932;2023-08-06T12:13:37;8.43;;;7.72;;
80898;SDS011;70349;49.210;-122.932;2023-08-06T12:16:03;13.00;;;12.10;;
80898;SDS011;70349;49.210;-122.932;2023-08-06T12:18:30;14.88;;;13.35;;
80898;SDS011;70349;49.210;-122.932;2023-08-06T12:20:58;17.20;;;15.70;;
80898;SDS011;70349;49.210;-122.932;2023-08-06T12:23:29;17.63;;;15.70;;
80898;SDS011;70349;49.210;-122.932;2023-08-06T12:25:58;17.48;;;14.52;;
80898;SDS011;70349;49.210;-122.932;2023-08-06T12:28:27;23.35;;;20.85;;
80898;SDS011;70349;49.210;-122.932;2023-08-06T12:30:53;35.92;;;31.98;;
80898;SDS011;70349;49.210;-122.932;2023-08-06T12:33:20;43.63;;;37.00;;
80898;SDS011;70349;49.210;-122.932;2023-08-06T12:35:51;37.80;;;33.45;;
80898;SDS011;70349;49.210;-122.932;2023-08-06T12:38:20;30.45;;;25.02;;
80898;SDS011;70349;49.210;-122.932;2023-08-06T12:40:46;31.80;;;28.35;;
80898;SDS011;70349;49.210;-122.932;2023-08-06T12:43:12;24.45;;;20.55;;
80898;SDS011;70349;49.210;-122.932;2023-08-06T12:45:41;28.98;;;23.92;;
80898;SDS011;70349;49.210;-122.932;2023-08-06T12:48:07;40.33;;;29.67;;
80898;SDS011;70349;49.210;-122.932;2023-08-06T12:50:34;55.42;;;42.47;;
80898;SDS011;70349;49.210;-122.932;2023-08-06T12:53:01;53.78;;;40.05;;
80898;SDS011;70349;49.210;-122.932;2023-08-06T12:55:27;54.40;;;38.78;;
80898;SDS011;70349;49.210;-122.932;2023-08-06T12:57:53;47.97;;;32.70;;
80898;SDS011;70349;49.210;-122.932;2023-08-06T13:00:22;34.88;;;28.02;;
80898;SDS011;70349;49.210;-122.932;2023-08-06T13:02:48;31.20;;;21.17;;
80898;SDS011;70349;49.210;-122.932;2023-08-06T13:05:14;24.30;;;17.75;;
80898;SDS011;70349;49.210;-122.932;2023-08-06T13:07:43;18.38;;;12.30;;
80898;SDS011;70349;49.210;-122.932;2023-08-06T13:10:12;16.52;;;12.50;;
80898;SDS011;70349;49.210;-122.932;2023-08-06T13:12:45;8.90;;;7.53;;
80898;SDS011;70349;49.210;-122.932;2023-08-06T13:15:11;10.68;;;7.97;;
80898;SDS011;70349;49.210;-122.932;2023-08-06T13:17:39;6.53;;;4.70;;
80898;SDS011;70349;49.210;-122.932;2023-08-06T13:20:06;6.82;;;6.13;;
80898;SDS011;70349;49.210;-122.932;2023-08-06T13:22:35;7.75;;;5.40;;
80898;SDS011;70349;49.210;-122.932;2023-08-06T13:25:01;7.25;;;5.80;;
80898;SDS011;70349;49.210;-122.932;2023-08-06T13:29:56;5.90;;;3.97;;
80898;SDS011;70349;49.210;-122.932;2023-08-06T13:32:25;7.03;;;6.32;;
80898;SDS011;70349;49.210;-122.932;2023-08-06T13:34:51;6.72;;;6.13;;
80898;SDS011;70349;49.210;-122.932;2023-08-06T13:37:17;6.25;;;5.65;;
80898;SDS011;70349;49.210;-122.932;2023-08-06T13:39:44;6.20;;;5.45;;
80898;SDS011;70349;49.210;-122.932;2023-08-06T13:42:10;7.68;;;7.05;;
80898;SDS011;70349;49.210;-122.932;2023-08-06T13:44:36;4.93;;;4.53;;
80898;SDS011;70349;49.210;-122.932;2023-08-06T13:47:05;4.25;;;3.47;;
80898;SDS011;70349;49.210;-122.932;2023-08-06T13:49:31;5.22;;;3.83;;
80898;SDS011;70349;49.210;-122.932;2023-08-06T13:51:59;4.80;;;4.18;;
80898;SDS011;70349;49.210;-122.932;2023-08-06T13:54:25;4.80;;;3.65;;
80898;SDS011;70349;49.210;-122.932;2023-08-06T13:56:52;4.82;;;3.45;;
80898;SDS011;70349;49.210;-122.932;2023-08-06T13:59:18;6.10;;;5.22;;
80898;SDS011;70349;49.210;-122.932;2023-08-06T14:01:49;5.57;;;4.28;;
80898;SDS011;70349;49.210;-122.932;2023-08-06T14:04:21;3.97;;;3.60;;
80898;SDS011;70349;49.210;-122.932;2023-08-06T14:06:49;4.97;;;4.43;;
80898;SDS011;70349;49.210;-122.932;2023-08-06T14:09:16;4.45;;;2.72;;
80898;SDS011;70349;49.210;-122.932;2023-08-06T14:11:44;3.78;;;2.53;;
80898;SDS011;70349;49.210;-122.932;2023-08-06T14:14:10;5.88;;;5.38;;
80898;SDS011;70349;49.210;-122.932;2023-08-06T14:16:37;5.00;;;4.55;;
80898;SDS011;70349;49.210;-122.932;2023-08-06T14:19:03;5.68;;;3.83;;
80898;SDS011;70349;49.210;-122.932;2023-08-06T14:21:32;2.60;;;1.88;;
80898;SDS011;70349;49.210;-122.932;2023-08-06T14:24:01;4.03;;;3.63;;
80898;SDS011;70349;49.210;-122.932;2023-08-06T14:26:29;4.22;;;3.88;;
80898;SDS011;70349;49.210;-122.932;2023-08-06T14:28:56;4.90;;;4.50;;
80898;SDS011;70349;49.210;-122.932;2023-08-06T14:31:22;2.70;;;2.22;;
80898;SDS011;70349;49.210;-122.932;2023-08-06T14:33:48;5.40;;;4.97;;
80898;SDS011;70349;49.210;-122.932;2023-08-06T14:36:14;3.65;;;3.17;;
80898;SDS011;70349;49.210;-122.932;2023-08-06T14:38:43;3.53;;;3.22;;
80898;SDS011;70349;49.210;-122.932;2023-08-06T14:41:09;4.82;;;4.43;;
80898;SDS011;70349;49.210;-122.932;2023-08-06T14:43:36;4.75;;;4.35;;